Latest Weather Observations for Williamtown

IDN60901

Issued at 3:51 pm EST Monday 27 May 2019 (issued every 10 minutes, with the page automatically refreshed every 10 minutes)

About weather observations | Map of Sydney area stations | Latest observations for Sydney area | Other Formats
Station Details ID: 061078 Name: WILLIAMTOWN RAAF Lat: -32.79 Lon: 151.84 Height: 7.5 m
Data from the previous 72 hours. | See also: Recent months at Williamtown
Date/Time
EST
Temp
°C
App
Temp
°C
Dew
Point
°C
Rel
Hum
%
Delta-T
°C
Wind Press
QNH
hPa
Press
MSL
hPa
Rain since
9am
mm
Dir  Spd
km/h
Gust
km/h
Spd
kts
Gust
kts
27/03:30pm 9.8 0.9 6.7 81 1.5 WSW 43 65 23 35 1010.2 1010.1 0.2
27/03:16pm 10.4 -1.4 7.3 81 1.5 SW 59 82 32 44 1010.1 1010.0 0.0
27/03:10pm 12.4 1.6 7.5 72 2.4 WSW 54 82 29 44 1009.4 1009.3 0.0
27/03:08pm 13.7 3.4 6.6 62 3.4 W 50 78 27 42 1008.7 1008.6 0.0
27/03:06pm 16.6 6.7 4.9 46 5.6 W 46 78 25 42 1008.2 1008.2 0.0
27/03:00pm 18.7 8.8 2.5 34 7.5 WNW 44 72 24 39 1007.3 1007.3 0.0
27/02:30pm 19.4 7.5 1.9 31 8.0 WNW 54 74 29 40 1006.6 1006.6 0.0
27/02:00pm 19.2 6.7 1.7 31 8.0 WNW 57 80 31 43 1006.3 1006.3 0.0
27/01:30pm 19.3 7.0 2.2 32 7.8 WNW 56 74 30 40 1006.7 1006.7 0.0
27/01:00pm 19.4 8.8 3.2 34 7.6 WNW 48 69 26 37 1006.7 1006.7 0.0
27/12:45pm 19.2 8.2 3.0 34 7.5 WNW 50 72 27 39 1006.8 1006.8 0.0
27/12:44pm 19.2 8.2 3.0 34 7.5 WNW 50 72 27 39 1006.9 1006.9 0.0
27/12:30pm 18.8 9.6 3.4 36 7.2 W 41 61 22 33 1007.3 1007.3 0.0
27/12:00pm 18.6 6.8 2.9 35 7.3 WNW 54 80 29 43 1007.6 1007.6 0.0
27/11:30am 18.3 7.0 3.4 37 6.9 WNW 52 72 28 39 1008.2 1008.2 0.0
27/11:00am 18.0 8.3 3.9 39 6.6 WNW 44 61 24 33 1009.0 1008.9 0.0
27/10:30am 17.5 8.7 3.8 40 6.4 WNW 39 61 21 33 1009.6 1009.5 0.0
27/10:00am 17.6 8.5 3.9 40 6.4 NW 41 61 22 33 1009.9 1009.8 0.0
27/09:35am 17.1 8.5 4.4 43 6.0 NW 39 61 21 33 1010.2 1010.1 0.0
27/09:30am 17.0 8.8 5.0 45 5.7 NW 37 54 20 29 1010.3 1010.2 0.0
27/09:10am 16.8 9.5 5.4 47 5.5 NW 33 54 18 29 1010.3 1010.2 0.0
27/09:00am 16.8 9.5 5.4 47 5.5 NW 33 46 18 25 1010.7 1010.6 0.0
27/08:46am 16.4 9.7 5.4 48 5.3 WNW 30 48 16 26 1010.9 1010.8 0.0
27/08:30am 16.0 10.0 5.3 49 5.1 WNW 26 41 14 22 1011.1 1011.0 0.0
27/08:00am 15.3 9.7 5.5 52 4.7 NW 24 33 13 18 1010.9 1010.8 0.0
27/07:30am 14.6 8.2 5.4 54 4.3 NW 28 37 15 20 1011.2 1011.1 0.0
27/07:00am 14.1 7.0 5.5 56 4.1 NW 32 44 17 24 1011.0 1010.9 0.0
27/06:30am 13.6 8.1 6.0 60 3.6 NW 24 33 13 18 1011.0 1010.9 0.0
27/06:00am 13.9 8.1 6.3 60 3.6 NW 26 35 14 19 1010.9 1010.8 0.0
27/05:30am 12.7 8.7 6.7 67 2.9 NW 17 22 9 12 1011.0 1010.9 0.0
27/05:00am 13.1 8.2 6.7 65 3.1 NW 22 28 12 15 1010.9 1010.8 0.0
27/04:30am 13.3 8.8 7.1 66 3.0 NW 20 28 11 15 1010.8 1010.7 0.0
27/04:00am 12.8 9.3 7.3 69 2.7 NW 15 20 8 11 1011.1 1011.0 0.0
27/03:30am 10.3 7.2 7.2 81 1.5 NW 13 15 7 8 1011.3 1011.2 0.0
27/03:00am 10.1 7.5 7.7 85 1.2 NW 11 13 6 7 1011.6 1011.5 0.0
27/02:30am 7.3 6.3 5.6 89 0.8 CALM 0 2 0 1 1012.0 1011.9 0.0
27/02:00am 9.1 6.7 7.1 87 0.9 NW 9 11 5 6 1012.4 1012.3 0.0
27/01:30am 7.4 5.2 6.0 91 0.6 WNW 7 9 4 5 1012.7 1012.6 0.0
27/01:00am 7.8 5.5 5.9 88 0.9 NW 7 9 4 5 1012.9 1012.8 0.0
27/12:30am 9.0 7.2 7.8 92 0.6 NW 7 7 4 4 1013.1 1013.0 0.0
27/12:00am 9.0 6.7 7.6 91 0.7 NW 9 11 5 6 1013.4 1013.3 0.0
 
Date/Time
EST
Temp
°C
App
Temp
°C
Dew
Point
°C
Rel
Hum
%
Delta-T
°C
Wind Press
QNH
hPa
Press
MSL
hPa
Rain since
9am
mm
Dir  Spd
km/h
Gust
km/h
Spd
kts
Gust
kts
26/11:30pm 9.1 7.2 7.4 89 0.8 NW 7 7 4 4 1013.6 1013.5 0.0
26/11:00pm 10.2 8.4 8.1 87 1.0 NW 7 9 4 5 1013.8 1013.7 0.0
26/10:30pm 10.9 9.2 8.5 85 1.2 NW 7 9 4 5 1013.9 1013.8 0.0
26/10:00pm 11.6 9.8 8.1 79 1.7 NW 7 11 4 6 1014.1 1014.0 0.0
26/09:30pm 11.8 10.2 8.6 81 1.6 NNW 7 9 4 5 1014.1 1014.0 0.0
26/09:00pm 12.7 12.3 8.4 75 2.1 CALM 0 0 0 0 1014.2 1014.1 0.0
26/08:30pm 12.2 10.5 7.7 74 2.2 NNW 6 7 3 4 1014.1 1014.0 0.0
26/08:00pm 13.9 11.9 7.0 63 3.4 NNW 7 9 4 5 1014.0 1013.9 0.0
26/07:30pm 16.2 13.9 7.4 56 4.4 NW 9 11 5 6 1013.9 1013.8 0.0
26/07:00pm 16.7 14.1 7.9 56 4.4 NW 11 13 6 7 1013.7 1013.6 0.0
26/06:30pm 18.0 15.8 7.7 51 5.2 NNW 9 13 5 7 1013.5 1013.4 0.0
26/06:00pm 17.8 15.3 8.1 53 5.0 NW 11 13 6 7 1013.2 1013.1 0.0
26/05:30pm 18.5 16.2 7.3 48 5.7 NW 9 13 5 7 1012.9 1012.8 0.0
26/05:00pm 19.5 16.4 7.3 45 6.2 NW 13 15 7 8 1012.6 1012.5 0.0
26/04:30pm 21.5 16.9 6.6 38 7.6 WNW 20 28 11 15 1012.4 1012.3 0.0
26/04:00pm 22.6 16.5 6.8 36 8.1 WNW 28 39 15 21 1012.2 1012.1 0.0
26/03:30pm 23.2 16.3 6.5 34 8.6 WNW 32 41 17 22 1012.0 1011.9 0.0
26/03:00pm 23.4 16.8 6.2 33 8.8 NW 30 41 16 22 1011.9 1011.8 0.0
26/02:30pm 23.7 16.8 6.5 33 8.8 WNW 32 48 17 26 1012.0 1011.9 0.0
26/02:00pm 23.5 16.6 6.3 33 8.8 WNW 32 43 17 23 1012.2 1012.1 0.0
26/01:30pm 23.5 18.3 7.2 35 8.5 WNW 24 39 13 21 1012.4 1012.3 0.0
26/01:00pm 23.0 18.5 7.1 36 8.2 WNW 20 28 11 15 1012.9 1012.8 0.0
26/12:30pm 22.5 18.8 7.9 39 7.6 WNW 17 26 9 14 1013.5 1013.4 0.0
26/12:00pm 21.5 16.7 7.3 40 7.3 NW 22 30 12 16 1014.3 1014.2 0.0
26/11:30am 20.6 16.9 7.9 44 6.6 WNW 17 22 9 12 1015.0 1014.9 0.0
26/11:00am 19.3 16.9 8.6 50 5.6 W 11 15 6 8 1015.8 1015.7 0.0
26/10:30am 18.3 15.9 8.8 54 4.9 NW 11 13 6 7 1016.2 1016.1 0.0
26/10:00am 17.5 14.9 9.2 58 4.3 NNW 13 20 7 11 1016.4 1016.3 0.0
26/09:30am 17.0 12.8 8.2 56 4.5 NW 20 28 11 15 1016.4 1016.3 0.0
26/09:00am 15.4 11.2 8.2 62 3.6 WNW 20 24 11 13 1016.5 1016.4 0.0
26/08:30am 14.4 10.4 8.4 67 3.0 WNW 19 26 10 14 1016.2 1016.1 0.0
26/08:00am 11.0 10.8 9.1 88 0.9 CALM 0 0 0 0 1015.6 1015.5 0.0
26/07:30am 9.3 7.6 8.4 94 0.4 NW 7 9 4 5 1015.4 1015.3 0.0
26/07:00am 6.9 4.6 5.8 93 0.5 NW 7 9 4 5 1015.3 1015.2 0.0
26/06:30am 6.2 3.5 5.5 95 0.3 NW 9 9 5 5 1015.2 1015.1 0.0
26/06:00am 5.8 4.6 4.8 93 0.4 CALM 0 0 0 0 1015.1 1015.0 0.0
26/05:30am 6.7 5.7 5.7 93 0.4 CALM 0 0 0 0 1015.0 1014.9 0.0
26/05:00am 6.9 5.9 5.5 91 0.6 CALM 0 0 0 0 1014.8 1014.7 0.0
26/04:30am 8.0 6.2 7.1 94 0.4 N 6 7 3 4 1014.8 1014.7 0.0
26/04:00am 6.6 4.4 5.2 91 0.6 NNW 6 7 3 4 1014.9 1014.8 0.0
26/03:30am 7.0 6.1 5.9 93 0.5 CALM 0 0 0 0 1015.2 1015.1 0.0
26/03:00am 8.1 7.5 7.2 94 0.4 CALM 0 0 0 0 1015.4 1015.3 0.0
26/02:30am 8.1 7.4 7.0 93 0.5 CALM 0 0 0 0 1015.7 1015.6 0.0
26/02:00am 8.2 7.5 7.0 92 0.6 CALM 0 0 0 0 1015.9 1015.8 0.0
26/01:30am 8.4 7.6 6.7 89 0.8 CALM 0 0 0 0 1016.0 1015.9 0.0
26/01:00am 9.5 8.9 7.3 86 1.0 CALM 0 0 0 0 1016.4 1016.3 0.0
26/12:30am 10.7 8.9 7.9 83 1.4 NNW 7 9 4 5 1016.5 1016.4 0.0
26/12:00am 9.3 7.3 7.3 87 0.9 NW 7 7 4 4 1016.8 1016.7 0.0
 
Date/Time
EST
Temp
°C
App
Temp
°C
Dew
Point
°C
Rel
Hum
%
Delta-T
°C
Wind Press
QNH
hPa
Press
MSL
hPa
Rain since
9am
mm
Dir  Spd
km/h
Gust
km/h
Spd
kts
Gust
kts
25/11:30pm 10.1 8.4 7.7 85 1.2 NW 6 9 3 5 1017.1 1017.0 0.0
25/11:00pm 10.1 9.5 7.2 82 1.4 CALM 0 0 0 0 1017.1 1017.0 0.0
25/10:30pm 10.9 10.4 7.8 81 1.5 CALM 0 6 0 3 1017.2 1017.1 0.0
25/10:00pm 11.1 9.0 6.5 73 2.2 SW 7 11 4 6 1017.3 1017.2 0.0
25/09:30pm 14.1 11.8 7.4 64 3.3 N 9 11 5 6 1017.3 1017.2 0.0
25/09:00pm 15.0 12.1 8.0 63 3.5 N 13 15 7 8 1017.4 1017.3 0.0
25/08:30pm 14.8 12.6 9.2 69 2.9 N 11 15 6 8 1017.5 1017.4 0.0
25/08:00pm 14.9 12.9 8.6 66 3.2 NNE 9 13 5 7 1017.6 1017.5 0.0
25/07:30pm 13.2 11.7 8.5 73 2.3 NNE 6 9 3 5 1017.4 1017.3 0.0
25/07:00pm 13.6 13.4 9.1 74 2.3 CALM 0 0 0 0 1017.3 1017.2 0.0
25/06:30pm 13.7 12.3 9.4 75 2.2 N 7 7 4 4 1017.2 1017.1 0.0
25/06:00pm 14.7 12.3 8.6 67 3.1 N 11 11 6 6 1017.0 1016.9 0.0
25/05:30pm 17.0 14.3 8.9 59 4.2 N 13 13 7 7 1016.9 1016.8 0.0
25/05:00pm 18.5 15.8 9.0 54 4.9 N 13 15 7 8 1016.7 1016.6 0.0
25/04:30pm 20.6 18.0 7.9 44 6.6 NNW 11 13 6 7 1016.6 1016.5 0.0
25/04:00pm 22.3 20.8 9.1 43 7.0 NNW 7 9 4 5 1016.4 1016.3 0.0
25/03:30pm 23.6 21.1 6.4 33 8.8 NW 9 13 5 7 1016.5 1016.4 0.0
25/03:00pm 23.4 20.4 6.2 33 8.8 NW 11 17 6 9 1016.5 1016.4 0.0
25/02:30pm 23.8 20.4 5.7 31 9.2 WNW 13 15 7 8 1016.7 1016.6 0.0
25/02:00pm 23.8 18.9 4.2 28 9.6 WNW 19 26 10 14 1016.8 1016.7 0.0
25/01:30pm 24.0 19.1 4.9 29 9.6 NW 20 32 11 17 1017.1 1017.0 0.0
25/01:00pm 23.5 19.1 7.6 36 8.3 NW 20 28 11 15 1017.6 1017.5 0.0
25/12:30pm 22.7 20.4 10.5 46 6.7 NW 13 17 7 9 1018.1 1018.0 0.0
25/12:00pm 22.0 19.3 10.5 48 6.3 NW 15 20 8 11 1018.6 1018.5 0.0
25/11:30am 21.2 18.3 11.0 52 5.6 NNW 17 20 9 11 1019.3 1019.2 0.0
25/11:00am 19.2 16.5 10.2 56 4.8 NNW 15 19 8 10 1019.8 1019.7 0.0
25/10:30am 17.7 14.5 10.1 61 4.0 NNW 17 22 9 12 1020.3 1020.2 0.0
25/10:00am 16.6 13.9 10.2 66 3.4 NNW 15 20 8 11 1020.6 1020.5 0.0
25/09:30am 15.4 12.6 10.0 70 2.8 NW 15 19 8 10 1020.9 1020.8 0.0
25/09:00am 13.8 10.0 9.0 73 2.4 NW 19 22 10 12 1021.0 1020.9 0.0
25/08:30am 13.0 9.9 8.9 76 2.1 WNW 15 19 8 10 1021.3 1021.3 0.0
25/08:00am 12.0 8.9 9.0 82 1.5 WNW 15 17 8 9 1021.1 1021.0 0.0
25/07:30am 11.1 8.4 8.8 86 1.1 NW 13 17 7 9 1021.2 1021.1 0.0
25/07:00am 9.7 7.2 8.1 90 0.8 NW 11 13 6 7 1021.1 1021.0 0.0
25/06:30am 10.0 7.5 8.3 89 0.8 NW 11 13 6 7 1020.9 1020.8 0.0
25/06:00am 9.9 7.4 8.3 90 0.8 NW 11 13 6 7 1020.9 1020.8 0.0
25/05:30am 10.3 7.8 8.2 87 1.0 NW 11 15 6 8 1020.6 1020.5 0.0
25/05:00am 10.2 8.1 8.1 87 1.0 NW 9 11 5 6 1020.5 1020.4 0.0
25/04:30am 10.7 8.0 9.0 89 0.8 NW 13 15 7 8 1020.4 1020.3 0.0
25/04:00am 10.2 7.5 8.8 91 0.7 NW 13 13 7 7 1020.4 1020.3 0.0
25/03:30am 10.5 8.3 9.3 92 0.6 NW 11 13 6 7 1020.3 1020.2 0.0
25/03:00am 10.8 8.7 9.9 94 0.5 NW 11 13 6 7 1020.4 1020.3 0.0
25/02:30am 10.6 8.9 9.8 95 0.4 NW 9 11 5 6 1020.4 1020.3 0.0
25/02:00am 10.1 8.2 9.0 93 0.5 WNW 9 11 5 6 1020.7 1020.6 0.0
25/01:30am 11.0 9.5 10.4 96 0.3 NW 9 11 5 6 1020.8 1020.7 0.0
25/01:00am 10.6 10.5 9.4 92 0.6 CALM 0 0 0 0 1020.9 1020.8 0.0
25/12:30am 11.2 10.0 10.3 94 0.5 NNW 7 9 4 5 1021.0 1020.9 0.0
25/12:00am 11.8 10.8 10.9 94 0.5 WSW 7 7 4 4 1021.1 1021.0 0.0
 
Date/Time
EST
Temp
°C
App
Temp
°C
Dew
Point
°C
Rel
Hum
%
Delta-T
°C
Wind Press
QNH
hPa
Press
MSL
hPa
Rain since
9am
mm
Dir  Spd
km/h
Gust
km/h
Spd
kts
Gust
kts
24/11:30pm 11.3 10.2 10.0 92 0.7 WSW 6 7 3 4 1021.3 1021.3 0.0
24/11:00pm 12.3 11.4 11.4 94 0.5 WSW 7 7 4 4 1021.3 1021.3 0.0
24/10:30pm 12.4 12.3 10.8 90 0.8 WNW 2 9 1 5 1021.4 1021.4 0.0
24/10:00pm 14.2 14.9 12.2 88 1.1 CALM 0 0 0 0 1021.3 1021.3 0.0
24/09:30pm 15.0 14.2 13.0 88 1.1 N 9 11 5 6 1021.4 1021.4 0.0
24/09:00pm 14.4 13.6 11.6 83 1.5 N 7 9 4 5 1021.5 1021.5 0.0
24/08:30pm 15.4 14.9 12.5 83 1.6 N 7 9 4 5 1021.5 1021.5 0.0
24/08:00pm 16.6 15.9 13.3 81 1.8 N 9 11 5 6 1021.6 1021.6 0.0
24/07:30pm 17.3 16.9 14.0 81 1.9 NNE 9 11 5 6 1021.6 1021.6 0.0
24/07:00pm 17.6 17.6 14.3 81 1.9 NNE 7 9 4 5 1021.5 1021.5 0.0
24/06:30pm 17.8 17.0 13.9 78 2.2 N 11 13 6 7 1021.4 1021.4 0.0
24/06:00pm 19.1 18.3 14.1 73 2.9 NNE 11 15 6 8 1021.3 1021.3 0.0
24/05:30pm 19.2 18.6 14.5 74 2.7 NE 11 17 6 9 1021.0 1020.9 0.0
24/05:00pm 19.6 18.9 14.4 72 3.0 NE 11 15 6 8 1020.9 1020.8 0.0
24/04:30pm 20.5 20.1 14.2 67 3.7 NE 9 13 5 7 1020.6 1020.5 0.0
24/04:00pm 22.1 21.6 13.7 59 4.9 NE 9 13 5 7 1020.5 1020.4 0.0

Latest Capital City Observations: Canberra | Sydney | Melbourne | Brisbane | Adelaide | Perth | Hobart | Darwin

Other formats

Comma delimited format used in spreadsheet applications
http://www.bom.gov.au/fwo/IDN60901/IDN60901.94776.axf

JavaScript Object Notation format (JSON) in row-major order
http://www.bom.gov.au/fwo/IDN60901/IDN60901.94776.json

Data quality

Most of these data are generated automatically and are frequently updated. Quality checks on data are not normally performed. It is possible for incorrect values to appear. Refer to information at About Latest Weather Observations and please check the disclaimer before using these data.